sensor_id;sensor_type;location;lat;lon;timestamp;P1;durP1;ratioP1;P2;durP2;ratioP2
9188;SDS011;34313;50.780;6.084;2022-12-18T00:00:57;22.97;;;10.13;;
9188;SDS011;34313;50.780;6.084;2022-12-18T00:03:22;17.50;;;9.83;;
9188;SDS011;34313;50.780;6.084;2022-12-18T00:05:49;25.43;;;10.63;;
9188;SDS011;34313;50.780;6.084;2022-12-18T00:08:15;18.07;;;9.70;;
9188;SDS011;34313;50.780;6.084;2022-12-18T00:10:41;19.37;;;10.17;;
9188;SDS011;34313;50.780;6.084;2022-12-18T00:13:06;25.17;;;10.40;;
9188;SDS011;34313;50.780;6.084;2022-12-18T00:15:35;17.60;;;9.40;;
9188;SDS011;34313;50.780;6.084;2022-12-18T00:18:02;16.20;;;9.90;;
9188;SDS011;34313;50.780;6.084;2022-12-18T00:20:27;15.00;;;8.53;;
9188;SDS011;34313;50.780;6.084;2022-12-18T00:22:53;18.57;;;9.90;;
9188;SDS011;34313;50.780;6.084;2022-12-18T00:25:19;15.47;;;7.80;;
9188;SDS011;34313;50.780;6.084;2022-12-18T00:27:44;21.07;;;8.83;;
9188;SDS011;34313;50.780;6.084;2022-12-18T00:30:10;15.97;;;8.27;;
9188;SDS011;34313;50.780;6.084;2022-12-18T00:32:36;12.40;;;7.33;;
9188;SDS011;34313;50.780;6.084;2022-12-18T00:35:02;21.70;;;9.37;;
9188;SDS011;34313;50.780;6.084;2022-12-18T00:37:27;22.87;;;9.80;;
9188;SDS011;34313;50.780;6.084;2022-12-18T00:39:53;15.67;;;8.90;;
9188;SDS011;34313;50.780;6.084;2022-12-18T00:42:18;21.87;;;9.03;;
9188;SDS011;34313;50.780;6.084;2022-12-18T00:45:02;20.17;;;9.70;;
9188;SDS011;34313;50.780;6.084;2022-12-18T00:47:28;18.00;;;9.60;;
9188;SDS011;34313;50.780;6.084;2022-12-18T00:49:53;16.60;;;8.63;;
9188;SDS011;34313;50.780;6.084;2022-12-18T00:52:18;18.23;;;8.63;;
9188;SDS011;34313;50.780;6.084;2022-12-18T00:54:44;16.80;;;9.67;;
9188;SDS011;34313;50.780;6.084;2022-12-18T00:57:09;17.10;;;8.33;;
9188;SDS011;34313;50.780;6.084;2022-12-18T00:59:35;17.00;;;8.50;;
9188;SDS011;34313;50.780;6.084;2022-12-18T01:02:00;16.60;;;8.43;;
9188;SDS011;34313;50.780;6.084;2022-12-18T01:04:25;17.47;;;8.57;;
9188;SDS011;34313;50.780;6.084;2022-12-18T01:06:51;13.97;;;7.53;;
9188;SDS011;34313;50.780;6.084;2022-12-18T01:09:16;15.23;;;7.97;;
9188;SDS011;34313;50.780;6.084;2022-12-18T01:11:41;17.60;;;8.50;;
9188;SDS011;34313;50.780;6.084;2022-12-18T01:14:07;13.03;;;7.07;;
9188;SDS011;34313;50.780;6.084;2022-12-18T01:16:32;13.97;;;7.33;;
9188;SDS011;34313;50.780;6.084;2022-12-18T01:18:57;15.50;;;7.87;;
9188;SDS011;34313;50.780;6.084;2022-12-18T01:21:23;17.40;;;7.77;;
9188;SDS011;34313;50.780;6.084;2022-12-18T01:23:52;12.20;;;6.60;;
9188;SDS011;34313;50.780;6.084;2022-12-18T01:26:19;15.07;;;7.63;;
9188;SDS011;34313;50.780;6.084;2022-12-18T01:28:45;13.07;;;8.00;;
9188;SDS011;34313;50.780;6.084;2022-12-18T01:33:39;11.50;;;6.63;;
9188;SDS011;34313;50.780;6.084;2022-12-18T01:36:05;11.10;;;6.00;;
9188;SDS011;34313;50.780;6.084;2022-12-18T01:38:31;14.77;;;6.43;;
9188;SDS011;34313;50.780;6.084;2022-12-18T01:41:00;9.77;;;5.43;;
9188;SDS011;34313;50.780;6.084;2022-12-18T01:46:11;10.07;;;5.30;;
9188;SDS011;34313;50.780;6.084;2022-12-18T01:48:36;9.97;;;5.20;;
9188;SDS011;34313;50.780;6.084;2022-12-18T01:51:04;7.97;;;4.63;;
9188;SDS011;34313;50.780;6.084;2022-12-18T01:53:31;9.90;;;5.10;;
9188;SDS011;34313;50.780;6.084;2022-12-18T01:55:56;10.10;;;5.50;;
9188;SDS011;34313;50.780;6.084;2022-12-18T02:01:14;10.20;;;5.40;;
9188;SDS011;34313;50.780;6.084;2022-12-18T02:03:43;11.27;;;5.43;;
9188;SDS011;34313;50.780;6.084;2022-12-18T02:06:12;12.70;;;4.77;;
9188;SDS011;34313;50.780;6.084;2022-12-18T02:14:36;14.50;;;5.33;;
9188;SDS011;34313;50.780;6.084;2022-12-18T02:22:44;20.00;;;6.00;;
9188;SDS011;34313;50.780;6.084;2022-12-18T02:27:51;10.20;;;5.50;;
9188;SDS011;34313;50.780;6.084;2022-12-18T02:30:18;10.97;;;5.07;;
9188;SDS011;34313;50.780;6.084;2022-12-18T02:32:50;10.33;;;5.50;;
9188;SDS011;34313;50.780;6.084;2022-12-18T02:35:22;10.30;;;5.53;;
9188;SDS011;34313;50.780;6.084;2022-12-18T02:37:50;10.63;;;5.10;;
9188;SDS011;34313;50.780;6.084;2022-12-18T02:40:17;8.10;;;5.50;;
9188;SDS011;34313;50.780;6.084;2022-12-18T02:42:46;8.13;;;4.97;;
9188;SDS011;34313;50.780;6.084;2022-12-18T02:45:11;6.37;;;4.40;;
9188;SDS011;34313;50.780;6.084;2022-12-18T02:47:38;5.20;;;4.20;;
9188;SDS011;34313;50.780;6.084;2022-12-18T02:52:55;6.40;;;3.60;;
9188;SDS011;34313;50.780;6.084;2022-12-18T02:55:45;9.50;;;4.43;;
9188;SDS011;34313;50.780;6.084;2022-12-18T03:00:45;6.47;;;4.30;;
9188;SDS011;34313;50.780;6.084;2022-12-18T03:06:12;8.30;;;4.20;;
9188;SDS011;34313;50.780;6.084;2022-12-18T03:08:46;5.90;;;4.03;;
9188;SDS011;34313;50.780;6.084;2022-12-18T03:11:15;9.83;;;4.60;;
9188;SDS011;34313;50.780;6.084;2022-12-18T03:14:01;11.10;;;5.57;;
9188;SDS011;34313;50.780;6.084;2022-12-18T03:16:29;11.77;;;6.20;;
9188;SDS011;34313;50.780;6.084;2022-12-18T03:19:00;14.50;;;6.97;;
9188;SDS011;34313;50.780;6.084;2022-12-18T03:21:29;10.10;;;6.10;;
9188;SDS011;34313;50.780;6.084;2022-12-18T03:24:00;11.07;;;6.50;;
9188;SDS011;34313;50.780;6.084;2022-12-18T03:26:30;14.07;;;6.23;;
9188;SDS011;34313;50.780;6.084;2022-12-18T03:28:59;13.07;;;6.30;;
9188;SDS011;34313;50.780;6.084;2022-12-18T03:31:27;9.80;;;6.17;;
9188;SDS011;34313;50.780;6.084;2022-12-18T03:33:57;12.37;;;5.70;;
9188;SDS011;34313;50.780;6.084;2022-12-18T03:36:26;9.30;;;4.63;;
9188;SDS011;34313;50.780;6.084;2022-12-18T03:38:52;7.37;;;4.70;;
9188;SDS011;34313;50.780;6.084;2022-12-18T03:44:00;9.70;;;5.23;;
9188;SDS011;34313;50.780;6.084;2022-12-18T03:49:08;7.17;;;4.20;;
9188;SDS011;34313;50.780;6.084;2022-12-18T03:54:03;7.47;;;4.70;;
9188;SDS011;34313;50.780;6.084;2022-12-18T03:56:33;6.53;;;3.67;;
9188;SDS011;34313;50.780;6.084;2022-12-18T03:59:12;12.97;;;5.07;;
9188;SDS011;34313;50.780;6.084;2022-12-18T04:01:40;6.57;;;3.93;;
9188;SDS011;34313;50.780;6.084;2022-12-18T04:04:10;10.77;;;4.20;;
9188;SDS011;34313;50.780;6.084;2022-12-18T04:06:37;12.30;;;4.90;;
9188;SDS011;34313;50.780;6.084;2022-12-18T04:09:05;9.17;;;4.40;;
9188;SDS011;34313;50.780;6.084;2022-12-18T04:11:30;5.63;;;3.97;;
9188;SDS011;34313;50.780;6.084;2022-12-18T04:13:56;8.60;;;4.20;;
9188;SDS011;34313;50.780;6.084;2022-12-18T04:16:23;7.80;;;4.67;;
9188;SDS011;34313;50.780;6.084;2022-12-18T04:18:49;10.67;;;4.77;;
9188;SDS011;34313;50.780;6.084;2022-12-18T04:21:15;6.23;;;3.90;;
9188;SDS011;34313;50.780;6.084;2022-12-18T04:23:43;7.17;;;4.03;;
9188;SDS011;34313;50.780;6.084;2022-12-18T04:26:09;7.40;;;4.20;;
9188;SDS011;34313;50.780;6.084;2022-12-18T04:28:34;8.60;;;4.17;;
9188;SDS011;34313;50.780;6.084;2022-12-18T04:30:59;9.80;;;4.53;;
9188;SDS011;34313;50.780;6.084;2022-12-18T04:33:25;7.67;;;4.20;;
9188;SDS011;34313;50.780;6.084;2022-12-18T04:35:50;9.47;;;5.00;;
9188;SDS011;34313;50.780;6.084;2022-12-18T04:38:15;9.20;;;4.57;;
9188;SDS011;34313;50.780;6.084;2022-12-18T04:40:41;12.13;;;5.03;;
9188;SDS011;34313;50.780;6.084;2022-12-18T04:43:06;11.40;;;4.33;;
9188;SDS011;34313;50.780;6.084;2022-12-18T04:45:32;7.50;;;4.17;;
9188;SDS011;34313;50.780;6.084;2022-12-18T04:47:58;10.30;;;4.20;;
9188;SDS011;34313;50.780;6.084;2022-12-18T04:50:24;8.17;;;3.70;;
9188;SDS011;34313;50.780;6.084;2022-12-18T04:52:49;6.50;;;4.13;;
9188;SDS011;34313;50.780;6.084;2022-12-18T04:55:15;10.27;;;4.77;;
9188;SDS011;34313;50.780;6.084;2022-12-18T04:57:40;10.10;;;4.37;;
9188;SDS011;34313;50.780;6.084;2022-12-18T05:00:06;9.97;;;4.70;;
9188;SDS011;34313;50.780;6.084;2022-12-18T05:02:32;12.07;;;4.47;;
9188;SDS011;34313;50.780;6.084;2022-12-18T05:04:57;8.63;;;4.50;;
9188;SDS011;34313;50.780;6.084;2022-12-18T05:07:22;7.83;;;4.57;;
9188;SDS011;34313;50.780;6.084;2022-12-18T05:09:48;14.07;;;5.13;;
9188;SDS011;34313;50.780;6.084;2022-12-18T05:12:13;8.07;;;4.70;;
9188;SDS011;34313;50.780;6.084;2022-12-18T05:14:38;9.17;;;5.40;;
9188;SDS011;34313;50.780;6.084;2022-12-18T05:17:04;9.03;;;4.27;;
9188;SDS011;34313;50.780;6.084;2022-12-18T05:19:29;11.73;;;4.60;;
9188;SDS011;34313;50.780;6.084;2022-12-18T05:21:54;10.10;;;5.13;;
9188;SDS011;34313;50.780;6.084;2022-12-18T05:24:20;11.90;;;4.83;;
9188;SDS011;34313;50.780;6.084;2022-12-18T05:26:45;7.30;;;4.97;;
9188;SDS011;34313;50.780;6.084;2022-12-18T05:29:11;8.00;;;4.90;;
9188;SDS011;34313;50.780;6.084;2022-12-18T05:31:37;8.67;;;4.83;;
9188;SDS011;34313;50.780;6.084;2022-12-18T05:34:03;10.07;;;5.27;;
9188;SDS011;34313;50.780;6.084;2022-12-18T05:36:29;11.30;;;4.90;;
9188;SDS011;34313;50.780;6.084;2022-12-18T05:38:54;13.17;;;5.43;;
9188;SDS011;34313;50.780;6.084;2022-12-18T05:41:20;6.53;;;4.77;;
9188;SDS011;34313;50.780;6.084;2022-12-18T05:43:45;10.47;;;5.40;;
9188;SDS011;34313;50.780;6.084;2022-12-18T05:46:12;16.73;;;5.40;;
9188;SDS011;34313;50.780;6.084;2022-12-18T05:48:40;9.17;;;5.07;;
9188;SDS011;34313;50.780;6.084;2022-12-18T05:51:07;9.57;;;5.00;;
9188;SDS011;34313;50.780;6.084;2022-12-18T05:53:35;8.60;;;5.27;;
9188;SDS011;34313;50.780;6.084;2022-12-18T05:56:02;12.30;;;5.87;;
9188;SDS011;34313;50.780;6.084;2022-12-18T05:58:30;13.80;;;5.80;;
9188;SDS011;34313;50.780;6.084;2022-12-18T06:00:56;10.70;;;5.50;;
9188;SDS011;34313;50.780;6.084;2022-12-18T06:03:21;14.20;;;6.67;;
9188;SDS011;34313;50.780;6.084;2022-12-18T06:05:47;12.73;;;6.73;;
9188;SDS011;34313;50.780;6.084;2022-12-18T06:08:12;11.40;;;5.67;;
9188;SDS011;34313;50.780;6.084;2022-12-18T06:10:38;14.87;;;6.53;;
9188;SDS011;34313;50.780;6.084;2022-12-18T06:13:05;9.10;;;5.20;;
9188;SDS011;34313;50.780;6.084;2022-12-18T06:15:31;7.73;;;5.20;;
9188;SDS011;34313;50.780;6.084;2022-12-18T06:17:57;14.83;;;5.90;;
9188;SDS011;34313;50.780;6.084;2022-12-18T06:20:22;13.23;;;5.57;;
9188;SDS011;34313;50.780;6.084;2022-12-18T06:22:48;12.60;;;5.50;;
9188;SDS011;34313;50.780;6.084;2022-12-18T06:25:13;8.50;;;5.50;;
9188;SDS011;34313;50.780;6.084;2022-12-18T06:27:39;12.70;;;6.07;;
9188;SDS011;34313;50.780;6.084;2022-12-18T06:30:05;10.40;;;5.23;;
9188;SDS011;34313;50.780;6.084;2022-12-18T06:32:31;12.30;;;5.77;;
9188;SDS011;34313;50.780;6.084;2022-12-18T06:34:56;10.40;;;5.87;;
9188;SDS011;34313;50.780;6.084;2022-12-18T06:37:22;12.50;;;7.23;;
9188;SDS011;34313;50.780;6.084;2022-12-18T06:39:51;12.53;;;6.03;;
9188;SDS011;34313;50.780;6.084;2022-12-18T06:42:21;13.80;;;6.43;;
9188;SDS011;34313;50.780;6.084;2022-12-18T06:44:46;13.20;;;5.90;;
9188;SDS011;34313;50.780;6.084;2022-12-18T06:47:12;14.37;;;6.80;;
9188;SDS011;34313;50.780;6.084;2022-12-18T06:49:37;12.17;;;6.37;;
9188;SDS011;34313;50.780;6.084;2022-12-18T06:52:02;16.03;;;6.50;;
9188;SDS011;34313;50.780;6.084;2022-12-18T06:54:28;13.17;;;6.57;;
9188;SDS011;34313;50.780;6.084;2022-12-18T06:56:53;15.90;;;6.40;;
9188;SDS011;34313;50.780;6.084;2022-12-18T06:59:18;12.67;;;6.00;;
9188;SDS011;34313;50.780;6.084;2022-12-18T07:01:44;10.97;;;6.43;;
9188;SDS011;34313;50.780;6.084;2022-12-18T07:04:09;9.83;;;5.90;;
9188;SDS011;34313;50.780;6.084;2022-12-18T07:06:34;15.40;;;7.77;;
9188;SDS011;34313;50.780;6.084;2022-12-18T07:09:00;17.03;;;6.73;;
9188;SDS011;34313;50.780;6.084;2022-12-18T07:11:25;14.63;;;6.50;;
9188;SDS011;34313;50.780;6.084;2022-12-18T07:13:51;9.00;;;5.47;;
9188;SDS011;34313;50.780;6.084;2022-12-18T07:16:18;13.63;;;6.63;;
9188;SDS011;34313;50.780;6.084;2022-12-18T07:18:44;9.47;;;5.80;;
9188;SDS011;34313;50.780;6.084;2022-12-18T07:21:11;12.83;;;6.27;;
9188;SDS011;34313;50.780;6.084;2022-12-18T07:23:38;13.83;;;6.20;;
9188;SDS011;34313;50.780;6.084;2022-12-18T07:26:04;9.73;;;5.67;;
9188;SDS011;34313;50.780;6.084;2022-12-18T07:28:32;13.30;;;6.40;;
9188;SDS011;34313;50.780;6.084;2022-12-18T07:31:01;16.03;;;6.50;;
9188;SDS011;34313;50.780;6.084;2022-12-18T07:33:31;15.53;;;7.80;;
9188;SDS011;34313;50.780;6.084;2022-12-18T07:35:58;12.43;;;6.90;;
9188;SDS011;34313;50.780;6.084;2022-12-18T07:38:24;14.40;;;6.27;;
9188;SDS011;34313;50.780;6.084;2022-12-18T07:40:49;13.30;;;6.23;;
9188;SDS011;34313;50.780;6.084;2022-12-18T07:43:14;14.37;;;6.47;;
9188;SDS011;34313;50.780;6.084;2022-12-18T07:45:40;12.27;;;5.70;;
9188;SDS011;34313;50.780;6.084;2022-12-18T07:48:05;10.40;;;5.80;;
9188;SDS011;34313;50.780;6.084;2022-12-18T07:50:30;10.30;;;6.00;;
9188;SDS011;34313;50.780;6.084;2022-12-18T07:52:56;13.87;;;6.50;;
9188;SDS011;34313;50.780;6.084;2022-12-18T07:55:21;13.40;;;5.97;;
9188;SDS011;34313;50.780;6.084;2022-12-18T07:57:46;11.83;;;6.43;;
9188;SDS011;34313;50.780;6.084;2022-12-18T08:00:12;11.43;;;6.10;;
9188;SDS011;34313;50.780;6.084;2022-12-18T08:02:38;20.13;;;6.60;;
9188;SDS011;34313;50.780;6.084;2022-12-18T08:05:03;15.30;;;7.40;;
9188;SDS011;34313;50.780;6.084;2022-12-18T08:07:29;16.87;;;7.77;;
9188;SDS011;34313;50.780;6.084;2022-12-18T08:09:54;16.73;;;7.43;;
9188;SDS011;34313;50.780;6.084;2022-12-18T08:12:21;16.27;;;8.00;;
9188;SDS011;34313;50.780;6.084;2022-12-18T08:14:47;11.97;;;6.87;;
9188;SDS011;34313;50.780;6.084;2022-12-18T08:17:12;18.70;;;7.00;;
9188;SDS011;34313;50.780;6.084;2022-12-18T08:19:37;11.90;;;6.40;;
9188;SDS011;34313;50.780;6.084;2022-12-18T08:22:03;14.27;;;6.40;;
9188;SDS011;34313;50.780;6.084;2022-12-18T08:24:28;15.30;;;7.43;;
9188;SDS011;34313;50.780;6.084;2022-12-18T08:26:53;13.33;;;6.37;;
9188;SDS011;34313;50.780;6.084;2022-12-18T08:29:20;18.57;;;8.07;;
9188;SDS011;34313;50.780;6.084;2022-12-18T08:31:46;15.80;;;7.00;;
9188;SDS011;34313;50.780;6.084;2022-12-18T08:34:11;17.40;;;7.90;;
9188;SDS011;34313;50.780;6.084;2022-12-18T08:36:36;18.30;;;7.40;;
9188;SDS011;34313;50.780;6.084;2022-12-18T08:39:02;13.83;;;7.57;;
9188;SDS011;34313;50.780;6.084;2022-12-18T08:41:27;12.17;;;7.50;;
9188;SDS011;34313;50.780;6.084;2022-12-18T08:43:53;14.90;;;7.90;;
9188;SDS011;34313;50.780;6.084;2022-12-18T08:46:37;15.90;;;7.13;;
9188;SDS011;34313;50.780;6.084;2022-12-18T08:49:05;12.47;;;7.77;;
9188;SDS011;34313;50.780;6.084;2022-12-18T08:51:32;17.23;;;8.43;;
9188;SDS011;34313;50.780;6.084;2022-12-18T08:53:57;15.30;;;7.63;;
9188;SDS011;34313;50.780;6.084;2022-12-18T08:56:23;14.53;;;7.50;;
9188;SDS011;34313;50.780;6.084;2022-12-18T08:58:50;14.97;;;7.97;;
9188;SDS011;34313;50.780;6.084;2022-12-18T09:01:17;17.33;;;8.30;;
9188;SDS011;34313;50.780;6.084;2022-12-18T09:03:42;14.17;;;7.57;;
9188;SDS011;34313;50.780;6.084;2022-12-18T09:06:07;16.30;;;8.30;;
9188;SDS011;34313;50.780;6.084;2022-12-18T09:08:33;17.93;;;7.40;;
9188;SDS011;34313;50.780;6.084;2022-12-18T09:10:58;15.83;;;7.90;;
9188;SDS011;34313;50.780;6.084;2022-12-18T09:13:24;12.53;;;7.60;;
9188;SDS011;34313;50.780;6.084;2022-12-18T09:15:50;17.87;;;8.30;;
9188;SDS011;34313;50.780;6.084;2022-12-18T09:18:18;15.03;;;8.30;;
9188;SDS011;34313;50.780;6.084;2022-12-18T09:20:45;14.30;;;8.10;;
9188;SDS011;34313;50.780;6.084;2022-12-18T09:23:10;18.87;;;8.20;;
9188;SDS011;34313;50.780;6.084;2022-12-18T09:25:36;16.10;;;8.33;;
9188;SDS011;34313;50.780;6.084;2022-12-18T09:28:03;19.07;;;8.73;;
9188;SDS011;34313;50.780;6.084;2022-12-18T09:30:40;16.90;;;8.13;;
9188;SDS011;34313;50.780;6.084;2022-12-18T09:33:07;17.33;;;7.90;;
9188;SDS011;34313;50.780;6.084;2022-12-18T09:35:32;15.20;;;8.50;;
9188;SDS011;34313;50.780;6.084;2022-12-18T09:38:04;15.33;;;8.80;;
9188;SDS011;34313;50.780;6.084;2022-12-18T09:40:33;13.20;;;8.37;;
9188;SDS011;34313;50.780;6.084;2022-12-18T09:43:03;15.10;;;8.33;;
9188;SDS011;34313;50.780;6.084;2022-12-18T09:45:43;13.37;;;7.40;;
9188;SDS011;34313;50.780;6.084;2022-12-18T09:48:45;16.77;;;8.97;;
9188;SDS011;34313;50.780;6.084;2022-12-18T09:51:17;15.30;;;8.17;;
9188;SDS011;34313;50.780;6.084;2022-12-18T09:53:50;15.30;;;8.80;;
9188;SDS011;34313;50.780;6.084;2022-12-18T09:56:21;17.83;;;8.60;;
9188;SDS011;34313;50.780;6.084;2022-12-18T09:58:54;20.67;;;9.60;;
9188;SDS011;34313;50.780;6.084;2022-12-18T10:01:23;13.27;;;8.57;;
9188;SDS011;34313;50.780;6.084;2022-12-18T10:03:51;20.07;;;8.90;;
9188;SDS011;34313;50.780;6.084;2022-12-18T10:06:29;17.40;;;9.13;;
9188;SDS011;34313;50.780;6.084;2022-12-18T10:09:27;15.27;;;9.80;;
9188;SDS011;34313;50.780;6.084;2022-12-18T10:20:30;15.60;;;9.40;;
9188;SDS011;34313;50.780;6.084;2022-12-18T10:25:38;17.00;;;9.60;;
9188;SDS011;34313;50.780;6.084;2022-12-18T10:28:16;22.90;;;10.20;;
9188;SDS011;34313;50.780;6.084;2022-12-18T10:30:44;26.13;;;10.43;;
9188;SDS011;34313;50.780;6.084;2022-12-18T10:33:16;16.87;;;9.17;;
9188;SDS011;34313;50.780;6.084;2022-12-18T10:35:44;18.80;;;9.93;;
9188;SDS011;34313;50.780;6.084;2022-12-18T10:46:02;17.03;;;10.40;;
9188;SDS011;34313;50.780;6.084;2022-12-18T10:48:31;17.23;;;10.40;;
9188;SDS011;34313;50.780;6.084;2022-12-18T10:50:58;19.53;;;10.00;;
9188;SDS011;34313;50.780;6.084;2022-12-18T10:53:28;17.50;;;10.90;;
9188;SDS011;34313;50.780;6.084;2022-12-18T10:55:57;18.73;;;9.73;;
9188;SDS011;34313;50.780;6.084;2022-12-18T10:58:28;21.13;;;11.43;;
9188;SDS011;34313;50.780;6.084;2022-12-18T11:01:02;14.43;;;9.80;;
9188;SDS011;34313;50.780;6.084;2022-12-18T11:08:28;18.50;;;10.07;;
9188;SDS011;34313;50.780;6.084;2022-12-18T11:10:53;17.90;;;10.33;;
9188;SDS011;34313;50.780;6.084;2022-12-18T11:13:22;24.20;;;11.80;;
9188;SDS011;34313;50.780;6.084;2022-12-18T11:15:50;16.33;;;9.47;;
9188;SDS011;34313;50.780;6.084;2022-12-18T11:20:51;20.20;;;11.47;;
9188;SDS011;34313;50.780;6.084;2022-12-18T11:23:19;19.57;;;10.93;;
9188;SDS011;34313;50.780;6.084;2022-12-18T11:26:00;27.83;;;12.07;;
9188;SDS011;34313;50.780;6.084;2022-12-18T11:28:38;18.63;;;10.83;;
9188;SDS011;34313;50.780;6.084;2022-12-18T11:31:11;19.17;;;10.97;;
9188;SDS011;34313;50.780;6.084;2022-12-18T11:33:50;26.50;;;12.23;;
9188;SDS011;34313;50.780;6.084;2022-12-18T11:36:21;20.63;;;11.03;;
9188;SDS011;34313;50.780;6.084;2022-12-18T11:38:47;23.30;;;12.00;;
9188;SDS011;34313;50.780;6.084;2022-12-18T11:44:34;30.00;;;12.50;;
9188;SDS011;34313;50.780;6.084;2022-12-18T11:47:15;21.73;;;12.27;;
9188;SDS011;34313;50.780;6.084;2022-12-18T11:49:47;21.07;;;12.30;;
9188;SDS011;34313;50.780;6.084;2022-12-18T11:54:55;22.20;;;11.97;;
9188;SDS011;34313;50.780;6.084;2022-12-18T11:57:34;22.13;;;11.80;;
9188;SDS011;34313;50.780;6.084;2022-12-18T12:00:12;23.63;;;12.80;;
9188;SDS011;34313;50.780;6.084;2022-12-18T12:11:20;20.60;;;11.90;;
9188;SDS011;34313;50.780;6.084;2022-12-18T12:30:36;24.60;;;13.27;;
9188;SDS011;34313;50.780;6.084;2022-12-18T12:33:30;40.10;;;15.80;;
9188;SDS011;34313;50.780;6.084;2022-12-18T12:36:25;32.73;;;16.27;;
9188;SDS011;34313;50.780;6.084;2022-12-18T12:39:03;25.13;;;13.40;;
9188;SDS011;34313;50.780;6.084;2022-12-18T12:41:33;40.47;;;18.97;;
9188;SDS011;34313;50.780;6.084;2022-12-18T12:44:21;32.83;;;17.77;;
9188;SDS011;34313;50.780;6.084;2022-12-18T12:46:54;22.40;;;12.63;;
9188;SDS011;34313;50.780;6.084;2022-12-18T12:49:25;25.30;;;13.23;;
9188;SDS011;34313;50.780;6.084;2022-12-18T12:51:58;21.53;;;13.07;;
9188;SDS011;34313;50.780;6.084;2022-12-18T12:54:28;24.47;;;12.93;;
9188;SDS011;34313;50.780;6.084;2022-12-18T12:57:00;23.60;;;12.67;;
9188;SDS011;34313;50.780;6.084;2022-12-18T13:07:41;29.00;;;14.50;;
9188;SDS011;34313;50.780;6.084;2022-12-18T13:20:34;18.93;;;10.40;;
9188;SDS011;34313;50.780;6.084;2022-12-18T13:25:48;21.47;;;10.43;;
9188;SDS011;34313;50.780;6.084;2022-12-18T13:30:59;19.57;;;9.60;;
9188;SDS011;34313;50.780;6.084;2022-12-18T13:36:01;24.97;;;11.00;;
9188;SDS011;34313;50.780;6.084;2022-12-18T13:38:42;20.50;;;10.87;;
9188;SDS011;34313;50.780;6.084;2022-12-18T13:43:53;22.43;;;10.53;;
9188;SDS011;34313;50.780;6.084;2022-12-18T13:51:39;20.60;;;11.57;;
9188;SDS011;34313;50.780;6.084;2022-12-18T13:57:02;21.10;;;11.10;;
9188;SDS011;34313;50.780;6.084;2022-12-18T13:59:38;21.00;;;12.03;;
9188;SDS011;34313;50.780;6.084;2022-12-18T14:02:12;25.90;;;11.40;;
9188;SDS011;34313;50.780;6.084;2022-12-18T14:04:39;37.63;;;17.43;;
9188;SDS011;34313;50.780;6.084;2022-12-18T14:07:06;24.23;;;11.60;;
9188;SDS011;34313;50.780;6.084;2022-12-18T14:09:35;31.07;;;13.83;;
9188;SDS011;34313;50.780;6.084;2022-12-18T14:12:04;23.77;;;11.80;;
9188;SDS011;34313;50.780;6.084;2022-12-18T14:14:49;21.03;;;11.00;;
9188;SDS011;34313;50.780;6.084;2022-12-18T14:17:17;29.00;;;11.70;;
9188;SDS011;34313;50.780;6.084;2022-12-18T14:19:46;24.77;;;12.50;;
9188;SDS011;34313;50.780;6.084;2022-12-18T14:22:21;24.73;;;13.13;;
9188;SDS011;34313;50.780;6.084;2022-12-18T14:27:40;21.60;;;11.97;;
9188;SDS011;34313;50.780;6.084;2022-12-18T14:35:27;19.97;;;12.40;;
9188;SDS011;34313;50.780;6.084;2022-12-18T14:37:52;22.20;;;13.00;;
9188;SDS011;34313;50.780;6.084;2022-12-18T14:40:32;29.00;;;13.10;;
9188;SDS011;34313;50.780;6.084;2022-12-18T14:42:57;25.90;;;12.93;;
9188;SDS011;34313;50.780;6.084;2022-12-18T14:45:35;22.87;;;13.50;;
9188;SDS011;34313;50.780;6.084;2022-12-18T14:48:05;26.73;;;12.80;;
9188;SDS011;34313;50.780;6.084;2022-12-18T14:50:32;31.00;;;15.47;;
9188;SDS011;34313;50.780;6.084;2022-12-18T14:52:57;22.43;;;12.50;;
9188;SDS011;34313;50.780;6.084;2022-12-18T14:55:23;22.50;;;13.30;;
9188;SDS011;34313;50.780;6.084;2022-12-18T14:57:49;30.97;;;14.23;;
9188;SDS011;34313;50.780;6.084;2022-12-18T15:00:18;22.27;;;11.70;;
9188;SDS011;34313;50.780;6.084;2022-12-18T15:02:46;33.63;;;13.20;;
9188;SDS011;34313;50.780;6.084;2022-12-18T15:05:17;31.30;;;14.67;;
9188;SDS011;34313;50.780;6.084;2022-12-18T15:07:54;28.03;;;14.07;;
9188;SDS011;34313;50.780;6.084;2022-12-18T15:10:21;27.10;;;13.00;;
9188;SDS011;34313;50.780;6.084;2022-12-18T15:18:00;21.67;;;12.30;;
9188;SDS011;34313;50.780;6.084;2022-12-18T15:20:26;16.90;;;9.37;;
9188;SDS011;34313;50.780;6.084;2022-12-18T15:22:52;17.17;;;8.40;;
9188;SDS011;34313;50.780;6.084;2022-12-18T15:25:32;14.30;;;8.33;;
9188;SDS011;34313;50.780;6.084;2022-12-18T15:28:02;12.33;;;6.47;;
9188;SDS011;34313;50.780;6.084;2022-12-18T15:30:28;11.77;;;6.70;;
9188;SDS011;34313;50.780;6.084;2022-12-18T15:33:16;14.73;;;8.60;;
9188;SDS011;34313;50.780;6.084;2022-12-18T15:35:47;13.60;;;7.40;;
9188;SDS011;34313;50.780;6.084;2022-12-18T15:38:21;14.33;;;8.50;;
9188;SDS011;34313;50.780;6.084;2022-12-18T15:40:47;14.13;;;7.87;;
9188;SDS011;34313;50.780;6.084;2022-12-18T15:43:12;16.77;;;9.57;;
9188;SDS011;34313;50.780;6.084;2022-12-18T15:45:56;18.07;;;9.03;;
9188;SDS011;34313;50.780;6.084;2022-12-18T15:48:21;27.90;;;14.33;;
9188;SDS011;34313;50.780;6.084;2022-12-18T15:50:48;19.57;;;11.17;;
9188;SDS011;34313;50.780;6.084;2022-12-18T15:53:15;15.83;;;8.53;;
9188;SDS011;34313;50.780;6.084;2022-12-18T15:55:41;23.97;;;10.73;;
9188;SDS011;34313;50.780;6.084;2022-12-18T15:58:24;22.23;;;11.87;;
9188;SDS011;34313;50.780;6.084;2022-12-18T16:00:50;16.27;;;8.67;;
9188;SDS011;34313;50.780;6.084;2022-12-18T16:03:16;15.47;;;8.00;;
9188;SDS011;34313;50.780;6.084;2022-12-18T16:05:42;19.67;;;9.40;;
9188;SDS011;34313;50.780;6.084;2022-12-18T16:08:07;16.17;;;9.33;;
9188;SDS011;34313;50.780;6.084;2022-12-18T16:10:32;19.60;;;9.00;;
9188;SDS011;34313;50.780;6.084;2022-12-18T16:12:58;16.27;;;8.10;;
9188;SDS011;34313;50.780;6.084;2022-12-18T16:15:24;18.10;;;9.40;;
9188;SDS011;34313;50.780;6.084;2022-12-18T16:17:49;16.20;;;8.40;;
9188;SDS011;34313;50.780;6.084;2022-12-18T16:20:15;14.30;;;7.77;;
9188;SDS011;34313;50.780;6.084;2022-12-18T16:22:42;12.67;;;7.50;;
9188;SDS011;34313;50.780;6.084;2022-12-18T16:25:22;14.27;;;7.40;;
9188;SDS011;34313;50.780;6.084;2022-12-18T16:27:52;16.93;;;7.37;;
9188;SDS011;34313;50.780;6.084;2022-12-18T16:30:20;16.77;;;7.87;;
9188;SDS011;34313;50.780;6.084;2022-12-18T16:32:47;16.37;;;7.87;;
9188;SDS011;34313;50.780;6.084;2022-12-18T16:35:14;9.07;;;6.73;;
9188;SDS011;34313;50.780;6.084;2022-12-18T16:37:40;14.30;;;7.20;;
9188;SDS011;34313;50.780;6.084;2022-12-18T16:40:07;15.20;;;8.30;;
9188;SDS011;34313;50.780;6.084;2022-12-18T16:42:37;20.77;;;8.90;;
9188;SDS011;34313;50.780;6.084;2022-12-18T16:45:04;20.13;;;9.97;;
9188;SDS011;34313;50.780;6.084;2022-12-18T16:47:31;27.00;;;12.73;;
9188;SDS011;34313;50.780;6.084;2022-12-18T16:49:57;20.23;;;11.17;;
9188;SDS011;34313;50.780;6.084;2022-12-18T16:52:22;21.67;;;12.30;;
9188;SDS011;34313;50.780;6.084;2022-12-18T16:54:48;18.63;;;12.00;;
9188;SDS011;34313;50.780;6.084;2022-12-18T16:57:15;21.00;;;10.90;;
9188;SDS011;34313;50.780;6.084;2022-12-18T16:59:42;21.93;;;10.73;;
9188;SDS011;34313;50.780;6.084;2022-12-18T17:02:14;19.47;;;11.60;;
9188;SDS011;34313;50.780;6.084;2022-12-18T17:04:41;23.67;;;12.53;;
9188;SDS011;34313;50.780;6.084;2022-12-18T17:07:07;19.70;;;11.67;;
9188;SDS011;34313;50.780;6.084;2022-12-18T17:09:33;21.60;;;11.70;;
9188;SDS011;34313;50.780;6.084;2022-12-18T17:11:59;30.17;;;12.50;;
9188;SDS011;34313;50.780;6.084;2022-12-18T17:14:24;23.20;;;12.47;;
9188;SDS011;34313;50.780;6.084;2022-12-18T17:16:51;21.50;;;11.33;;
9188;SDS011;34313;50.780;6.084;2022-12-18T17:19:17;19.67;;;11.80;;